createdAt,value
2022-10-01T00:01:15.840Z,97957.47
2022-10-01T00:03:43.076Z,97957.47
2022-10-01T00:06:16.623Z,97956.84
2022-10-01T00:08:46.977Z,97956.00
2022-10-01T00:11:19.570Z,97952.69
2022-10-01T00:13:47.097Z,97958.97
2022-10-01T00:16:16.752Z,97959.91
2022-10-01T00:18:45.739Z,97960.69
2022-10-01T00:21:19.256Z,97960.25
2022-10-01T00:23:46.222Z,97952.47
2022-10-01T00:26:13.655Z,97965.03
2022-10-01T00:28:41.006Z,97961.94
2022-10-01T00:31:08.978Z,97960.09
2022-10-01T00:33:36.760Z,97962.75
2022-10-01T00:36:05.444Z,97968.00
2022-10-01T00:38:32.716Z,97964.72
2022-10-01T00:40:59.490Z,97967.38
2022-10-01T00:43:34.506Z,97958.25
2022-10-01T00:46:09.590Z,97964.72
2022-10-01T00:48:47.816Z,97961.44
2022-10-01T00:51:14.950Z,97960.81
2022-10-01T00:53:43.360Z,97955.50
2022-10-01T00:56:09.859Z,97953.00
2022-10-01T00:58:36.588Z,97946.38
2022-10-01T01:01:03.236Z,97949.84
2022-10-01T01:03:29.868Z,97951.53
2022-10-01T01:05:56.604Z,97954.50
2022-10-01T01:08:23.373Z,97946.88
2022-10-01T01:11:08.942Z,97941.75
2022-10-01T01:13:44.386Z,97953.34
2022-10-01T01:16:27.921Z,97943.09
2022-10-01T01:19:09.408Z,97950.38
2022-10-01T01:21:42.592Z,97949.16
2022-10-01T01:24:24.206Z,97953.28
2022-10-01T01:27:02.623Z,97963.38
2022-10-01T01:29:50.481Z,97946.53
2022-10-01T01:32:38.493Z,97948.38
2022-10-01T01:35:10.137Z,97946.88
2022-10-01T01:37:42.280Z,97944.16
2022-10-01T01:40:12.537Z,97934.47
2022-10-01T01:42:42.055Z,97949.84
2022-10-01T01:45:14.220Z,97953.19
2022-10-01T01:47:42.254Z,97960.47
2022-10-01T01:50:11.492Z,97955.94
2022-10-01T01:52:38.432Z,97950.09
2022-10-01T01:55:08.626Z,97952.75
2022-10-01T01:57:42.211Z,97961.25
2022-10-01T02:00:10.682Z,97961.28
2022-10-01T02:02:39.481Z,97963.72
2022-10-01T02:05:10.526Z,97962.91
2022-10-01T02:07:43.156Z,97965.13
2022-10-01T02:10:32.833Z,97961.72
2022-10-01T02:13:18.073Z,97963.34
2022-10-01T02:15:56.686Z,97968.97
2022-10-01T02:18:36.815Z,97958.22
2022-10-01T02:21:15.095Z,97956.44
2022-10-01T02:23:51.238Z,97952.47
2022-10-01T02:26:20.991Z,97955.09
2022-10-01T02:28:51.235Z,97946.53
2022-10-01T02:31:21.440Z,97948.06
2022-10-01T02:33:52.078Z,97948.56
2022-10-01T02:36:20.989Z,97951.34
2022-10-01T02:38:50.220Z,97948.84
2022-10-01T02:41:23.341Z,97947.56
2022-10-01T02:44:05.570Z,97948.00
2022-10-01T02:46:48.335Z,97942.91
2022-10-01T02:49:15.103Z,97944.25
2022-10-01T02:52:10.134Z,97939.94
2022-10-01T02:54:54.639Z,97944.56
2022-10-01T02:57:24.798Z,97939.13
2022-10-01T02:59:51.824Z,97942.25
2022-10-01T03:02:19.779Z,97943.09
2022-10-01T03:04:48.145Z,97948.88
2022-10-01T03:07:16.761Z,97936.44
2022-10-01T03:09:43.364Z,97937.63
2022-10-01T03:12:10.770Z,97930.69
2022-10-01T03:14:39.336Z,97923.38
2022-10-01T03:17:07.523Z,97936.25
2022-10-01T03:19:34.353Z,97933.13
2022-10-01T03:22:00.850Z,97939.59
2022-10-01T03:24:27.809Z,97945.22
2022-10-01T03:26:56.860Z,97942.91
2022-10-01T03:29:24.426Z,97940.44
2022-10-01T03:31:51.947Z,97942.25
2022-10-01T03:34:19.108Z,97935.78
2022-10-01T03:36:46.099Z,97950.53
2022-10-01T03:39:13.255Z,97942.44
2022-10-01T03:41:40.179Z,97949.53
2022-10-01T03:44:06.896Z,97944.75
2022-10-01T03:46:36.583Z,97950.84
2022-10-01T03:49:06.753Z,97946.88
2022-10-01T03:51:33.920Z,97943.59
2022-10-01T03:54:00.671Z,97930.81
2022-10-01T03:56:27.427Z,97941.91
2022-10-01T03:58:54.387Z,97940.94
2022-10-01T04:01:21.203Z,97948.69
2022-10-01T04:03:49.179Z,97943.25
2022-10-01T04:06:16.534Z,97954.00
2022-10-01T04:08:43.439Z,97948.84
2022-10-01T04:11:10.488Z,97949.19
2022-10-01T04:13:37.118Z,97944.00
2022-10-01T04:16:05.268Z,97941.72
2022-10-01T04:18:33.208Z,97948.88
2022-10-01T04:21:00.073Z,97948.69
2022-10-01T04:23:27.337Z,97949.38
2022-10-01T04:25:54.052Z,97949.53
2022-10-01T04:28:20.663Z,97941.75
2022-10-01T04:30:47.234Z,97941.91
2022-10-01T04:33:16.921Z,97936.81
2022-10-01T04:35:43.798Z,97923.34
2022-10-01T04:38:16.156Z,97933.63
2022-10-01T04:40:43.174Z,97935.63
2022-10-01T04:43:13.270Z,97921.50
2022-10-01T04:45:39.884Z,97921.88
2022-10-01T04:48:09.800Z,97926.88
2022-10-01T04:50:38.582Z,97919.22
2022-10-01T04:53:05.077Z,97925.69
2022-10-01T04:55:31.622Z,97915.94
2022-10-01T04:57:58.184Z,97916.78
2022-10-01T05:00:26.479Z,97932.66
2022-10-01T05:02:56.215Z,97922.75
2022-10-01T05:05:24.614Z,97922.91
2022-10-01T05:07:51.276Z,97925.09
2022-10-01T05:10:20.722Z,97909.19
2022-10-01T05:12:48.520Z,97905.53
2022-10-01T05:15:16.751Z,97908.19
2022-10-01T05:17:43.449Z,97906.06
2022-10-01T05:20:16.889Z,97907.34
2022-10-01T05:22:44.901Z,97913.00
2022-10-01T05:25:11.672Z,97888.53
2022-10-01T05:27:41.920Z,97901.75
2022-10-01T05:30:13.374Z,97894.78
2022-10-01T05:32:40.020Z,97902.88
2022-10-01T05:35:10.690Z,97894.81
2022-10-01T05:37:40.244Z,97911.19
2022-10-01T05:40:10.695Z,97923.25
2022-10-01T05:42:45.698Z,97897.28
2022-10-01T05:45:12.563Z,97901.91
2022-10-01T05:47:41.254Z,97902.22
2022-10-01T05:50:09.404Z,97891.00
2022-10-01T05:52:37.338Z,97905.22
2022-10-01T05:55:04.272Z,97913.84
2022-10-01T05:57:31.322Z,97902.56
2022-10-01T05:59:58.047Z,97904.56
2022-10-01T06:02:24.714Z,97886.72
2022-10-01T06:04:51.353Z,97893.13
2022-10-01T06:07:17.844Z,97887.69
2022-10-01T06:09:44.942Z,97893.47
2022-10-01T06:12:12.398Z,97880.72
2022-10-01T06:14:41.017Z,97889.81
2022-10-01T06:17:08.789Z,97893.97
2022-10-01T06:19:35.275Z,97890.00
2022-10-01T06:22:01.806Z,97910.00
2022-10-01T06:24:28.355Z,97910.81
2022-10-01T06:26:54.861Z,97893.78
2022-10-01T06:29:21.378Z,97902.03
2022-10-01T06:31:47.958Z,97912.31
2022-10-01T06:34:14.433Z,97918.28
2022-10-01T06:36:40.963Z,97931.97
2022-10-01T06:39:10.619Z,97927.50
2022-10-01T06:41:41.416Z,97926.53
2022-10-01T06:44:11.919Z,97918.75
2022-10-01T06:46:41.481Z,97924.03
2022-10-01T06:49:08.799Z,97928.66
2022-10-01T06:51:53.784Z,97917.25
2022-10-01T06:54:20.317Z,97914.09
2022-10-01T06:56:46.990Z,97920.16
2022-10-01T06:59:13.525Z,97920.47
2022-10-01T07:01:40.163Z,97917.28
2022-10-01T07:04:09.811Z,97930.81
2022-10-01T07:06:37.921Z,97900.03
2022-10-01T07:09:04.475Z,97923.78
2022-10-01T07:11:31.566Z,97933.69
2022-10-01T07:13:58.895Z,97938.28
2022-10-01T07:16:25.414Z,97931.78
2022-10-01T07:18:52.545Z,97934.94
2022-10-01T07:21:19.361Z,97946.41
2022-10-01T07:23:45.853Z,97947.28
2022-10-01T07:26:12.448Z,97943.38
2022-10-01T07:28:38.967Z,97945.16
2022-10-01T07:31:11.883Z,97967.72
2022-10-01T07:33:40.016Z,97964.91
2022-10-01T07:36:09.409Z,97966.50
2022-10-01T07:38:38.600Z,97971.91
2022-10-01T07:41:06.238Z,97969.94
2022-10-01T07:43:35.050Z,97964.91
2022-10-01T07:46:02.011Z,97968.56
2022-10-01T07:48:28.628Z,97969.59
2022-10-01T07:50:55.265Z,97980.06
2022-10-01T07:53:23.929Z,97982.22
2022-10-01T07:55:50.426Z,97986.91
2022-10-01T07:58:17.803Z,97981.84
2022-10-01T08:00:45.096Z,97983.75
2022-10-01T08:03:14.468Z,97978.63
2022-10-01T08:05:42.797Z,97974.44
2022-10-01T08:08:09.619Z,97986.00
2022-10-01T08:10:38.197Z,97986.22
2022-10-01T08:13:16.007Z,97982.22
2022-10-01T08:15:44.451Z,97988.16
2022-10-01T08:18:11.457Z,97984.81
2022-10-01T08:20:42.044Z,97991.44
2022-10-01T08:23:11.503Z,97989.31
2022-10-01T08:25:39.724Z,97999.03
2022-10-01T08:28:11.104Z,97986.78
2022-10-01T08:30:42.125Z,98007.69
2022-10-01T08:33:11.681Z,97999.03
2022-10-01T08:35:40.381Z,97993.50
2022-10-01T08:38:11.789Z,98006.78
2022-10-01T08:40:49.895Z,98000.91
2022-10-01T08:43:38.545Z,98009.53
2022-10-01T08:46:22.851Z,97997.97
2022-10-01T08:48:58.998Z,98006.63
2022-10-01T08:51:29.484Z,98000.00
2022-10-01T08:54:32.667Z,98002.59
2022-10-01T08:57:03.311Z,98014.16
2022-10-01T08:59:48.769Z,98005.81
2022-10-01T09:02:20.312Z,98017.91
2022-10-01T09:04:48.318Z,98019.19
2022-10-01T09:07:56.657Z,98017.06
2022-10-01T09:10:42.328Z,98028.09
2022-10-01T09:13:27.576Z,98033.34
2022-10-01T09:16:02.003Z,98035.88
2022-10-01T09:19:10.971Z,98026.25
2022-10-01T09:21:52.990Z,98037.63
2022-10-01T09:24:32.274Z,98030.84
2022-10-01T09:27:00.758Z,98009.94
2022-10-01T09:29:38.626Z,98013.78
2022-10-01T09:32:09.344Z,98038.38
2022-10-01T09:34:40.294Z,98011.41
2022-10-01T09:37:23.880Z,98043.19
2022-10-01T09:39:53.136Z,98045.94
2022-10-01T09:42:23.952Z,98021.19
2022-10-01T09:44:50.592Z,98037.50
2022-10-01T09:47:20.322Z,98051.16
2022-10-01T09:49:49.362Z,98023.75
2022-10-01T09:52:34.832Z,98044.34
2022-10-01T09:55:03.658Z,98058.56
2022-10-01T09:57:46.239Z,98051.69
2022-10-01T10:00:20.019Z,98048.06
2022-10-01T10:02:51.681Z,98056.41
2022-10-01T10:05:18.399Z,98054.63
2022-10-01T10:07:46.914Z,98049.25
2022-10-01T10:10:25.325Z,98057.69
2022-10-01T10:13:09.489Z,98035.75
2022-10-01T10:15:41.326Z,98031.03
2022-10-01T10:18:21.526Z,98035.47
2022-10-01T10:20:52.937Z,98041.53
2022-10-01T10:23:29.278Z,98022.81
2022-10-01T10:26:03.616Z,98044.59
2022-10-01T10:28:44.644Z,98050.63
2022-10-01T10:31:15.991Z,98049.31
2022-10-01T10:33:51.209Z,98047.69
2022-10-01T10:36:19.726Z,98028.50
2022-10-01T10:38:53.734Z,98037.19
2022-10-01T10:41:26.410Z,98058.06
2022-10-01T10:44:00.626Z,98048.50
2022-10-01T10:46:45.915Z,98049.09
2022-10-01T10:49:22.101Z,98058.97
2022-10-01T10:51:55.806Z,98032.16
2022-10-01T10:54:31.494Z,98067.16
2022-10-01T10:57:02.855Z,98072.44
2022-10-01T10:59:32.213Z,98068.38
2022-10-01T11:02:14.519Z,98060.81
2022-10-01T11:04:47.513Z,98069.38
2022-10-01T11:07:21.252Z,98075.13
2022-10-01T11:10:03.135Z,98078.69
2022-10-01T11:12:39.416Z,98074.03
2022-10-01T11:15:32.352Z,98084.34
2022-10-01T11:18:01.667Z,98079.03
2022-10-01T11:20:33.638Z,98080.13
2022-10-01T11:23:13.809Z,98081.94
2022-10-01T11:26:10.413Z,98085.88
2022-10-01T11:28:44.376Z,98093.72
2022-10-01T11:31:34.272Z,98085.31
2022-10-01T11:34:13.083Z,98088.25
2022-10-01T11:36:50.948Z,98071.41
2022-10-01T11:39:26.104Z,98053.41
2022-10-01T11:42:03.964Z,98060.06
2022-10-01T11:44:39.237Z,98071.59
2022-10-01T11:47:09.659Z,98087.28
2022-10-01T11:50:00.793Z,98081.72
2022-10-01T11:52:27.974Z,98066.44
2022-10-01T11:55:40.447Z,98070.97
2022-10-01T11:58:50.839Z,98064.28
2022-10-01T12:01:47.772Z,98071.69
2022-10-01T12:04:58.249Z,98033.34
2022-10-01T12:07:55.594Z,98066.03
2022-10-01T12:10:50.831Z,98056.53
2022-10-01T12:13:58.305Z,98057.47
2022-10-01T12:16:39.472Z,98063.38
2022-10-01T12:19:18.740Z,98057.28
2022-10-01T12:21:56.951Z,98047.41
2022-10-01T12:24:38.252Z,98046.44
2022-10-01T12:27:34.040Z,98059.91
2022-10-01T12:30:03.548Z,98065.09
2022-10-01T12:33:09.959Z,98063.44
2022-10-01T12:36:08.504Z,98055.41
2022-10-01T12:38:58.541Z,98051.63
2022-10-01T12:41:42.131Z,98058.03
2022-10-01T12:44:29.933Z,98059.38
2022-10-01T12:47:15.066Z,98055.78
2022-10-01T12:49:47.323Z,98068.13
2022-10-01T12:52:25.263Z,98055.22
2022-10-01T12:55:00.771Z,98057.63
2022-10-01T12:57:39.318Z,98060.31
2022-10-01T13:00:15.468Z,98040.41
2022-10-01T13:03:12.218Z,98051.41
2022-10-01T13:05:57.020Z,98061.28
2022-10-01T13:08:44.899Z,98049.09
2022-10-01T13:11:40.286Z,98045.84
2022-10-01T13:14:13.110Z,98056.88
2022-10-01T13:16:42.384Z,98050.53
2022-10-01T13:19:19.703Z,98035.47
2022-10-01T13:21:59.544Z,98049.88
2022-10-01T13:24:55.655Z,98052.13
2022-10-01T13:27:38.299Z,98056.44
2022-10-01T13:30:14.884Z,98006.56
2022-10-01T13:33:00.996Z,98038.72
2022-10-01T13:35:35.618Z,98049.09
2022-10-01T13:38:38.895Z,98066.16
2022-10-01T13:41:19.169Z,98031.59
2022-10-01T13:43:59.168Z,98050.88
2022-10-01T13:46:32.492Z,98070.97
2022-10-01T13:49:10.921Z,98076.16
2022-10-01T13:51:41.500Z,98074.63
2022-10-01T13:54:22.243Z,98058.06
2022-10-01T13:56:48.769Z,98070.44
2022-10-01T13:59:31.746Z,98077.97
2022-10-01T14:01:58.624Z,98075.53
2022-10-01T14:04:38.468Z,98090.03
2022-10-01T14:07:23.147Z,98083.84
2022-10-01T14:09:53.671Z,98064.00
2022-10-01T14:12:45.176Z,98078.16
2022-10-01T14:15:42.427Z,98080.03
2022-10-01T14:18:15.829Z,98080.31
2022-10-01T14:21:05.123Z,98096.47
2022-10-01T14:24:06.827Z,98094.78
2022-10-01T14:26:48.424Z,98105.69
2022-10-01T14:29:39.561Z,98074.78
2022-10-01T14:32:24.347Z,98112.59
2022-10-01T14:35:19.301Z,98102.31
2022-10-01T14:37:46.334Z,98124.28
2022-10-01T14:40:19.958Z,98130.59
2022-10-01T14:43:14.364Z,98131.97
2022-10-01T14:45:52.101Z,98129.41
2022-10-01T14:48:18.899Z,98146.28
2022-10-01T14:50:52.118Z,98138.69
2022-10-01T14:53:20.747Z,98119.56
2022-10-01T14:55:49.528Z,98110.75
2022-10-01T14:58:42.825Z,98137.09
2022-10-01T15:01:35.472Z,98132.44
2022-10-01T15:04:02.098Z,98135.59
2022-10-01T15:06:29.963Z,98121.06
2022-10-01T15:09:08.058Z,98144.84
2022-10-01T15:11:34.823Z,98126.41
2022-10-01T15:14:04.795Z,98132.94
2022-10-01T15:16:33.406Z,98139.56
2022-10-01T15:19:03.849Z,98154.16
2022-10-01T15:21:34.810Z,98153.44
2022-10-01T15:24:04.287Z,98146.66
2022-10-01T15:26:32.790Z,98156.47
2022-10-01T15:29:16.669Z,98156.31
2022-10-01T15:31:46.329Z,98139.34
2022-10-01T15:34:15.432Z,98145.63
2022-10-01T15:36:47.279Z,98156.19
2022-10-01T15:39:36.431Z,98159.81
2022-10-01T15:42:23.546Z,98162.69
2022-10-01T15:44:50.476Z,98154.97
2022-10-01T15:47:20.034Z,98166.03
2022-10-01T15:50:16.615Z,98169.84
2022-10-01T15:53:08.465Z,98174.91
2022-10-01T15:55:52.353Z,98190.00
2022-10-01T15:58:33.352Z,98182.75
2022-10-01T16:01:09.426Z,98187.75
2022-10-01T16:04:03.733Z,98194.72
2022-10-01T16:06:37.702Z,98205.91
2022-10-01T16:09:16.111Z,98197.84
2022-10-01T16:12:22.307Z,98207.66
2022-10-01T16:14:59.494Z,98210.63
2022-10-01T16:17:32.098Z,98213.59
2022-10-01T16:20:01.391Z,98221.50
2022-10-01T16:22:37.465Z,98223.88
2022-10-01T16:25:07.235Z,98229.09
2022-10-01T16:27:45.396Z,98198.91
2022-10-01T16:30:20.801Z,98244.88
2022-10-01T16:32:48.458Z,98207.84
2022-10-01T16:35:19.172Z,98243.25
2022-10-01T16:37:48.337Z,98243.53
2022-10-01T16:40:16.327Z,98258.78
2022-10-01T16:42:44.794Z,98238.69
2022-10-01T16:45:16.998Z,98267.31
2022-10-01T16:47:45.173Z,98254.88
2022-10-01T16:50:14.418Z,98263.75
2022-10-01T16:52:44.580Z,98272.59
2022-10-01T16:55:18.876Z,98268.50
2022-10-01T16:57:45.432Z,98281.97
2022-10-01T17:00:19.992Z,98277.84
2022-10-01T17:02:47.170Z,98288.25
2022-10-01T17:05:22.571Z,98291.56
2022-10-01T17:07:56.083Z,98288.66
2022-10-01T17:10:23.672Z,98276.34
2022-10-01T17:12:56.004Z,98265.69
2022-10-01T17:15:27.430Z,98304.66
2022-10-01T17:17:55.118Z,98282.25
2022-10-01T17:20:22.329Z,98310.94
2022-10-01T17:22:49.729Z,98313.19
2022-10-01T17:25:32.157Z,98316.06
2022-10-01T17:28:00.834Z,98302.91
2022-10-01T17:30:31.617Z,98304.97
2022-10-01T17:33:02.483Z,98321.69
2022-10-01T17:35:29.901Z,98316.75
2022-10-01T17:37:57.184Z,98307.06
2022-10-01T17:40:24.119Z,98331.59
2022-10-01T17:42:50.797Z,98339.44
2022-10-01T17:45:17.877Z,98314.06
2022-10-01T17:47:46.069Z,98341.28
2022-10-01T17:50:14.768Z,98333.69
2022-10-01T17:52:50.259Z,98356.16
2022-10-01T17:55:17.432Z,98357.00
2022-10-01T17:57:43.980Z,98356.38
2022-10-01T18:00:14.623Z,98355.13
2022-10-01T18:02:43.664Z,98379.25
2022-10-01T18:05:14.438Z,98371.22
2022-10-01T18:07:43.736Z,98388.53
2022-10-01T18:10:13.366Z,98398.63
2022-10-01T18:12:44.459Z,98387.91
2022-10-01T18:15:13.710Z,98391.00
2022-10-01T18:17:49.653Z,98382.97
2022-10-01T18:20:22.065Z,98393.50
2022-10-01T18:22:49.709Z,98391.00
2022-10-01T18:25:16.737Z,98389.34
2022-10-01T18:27:43.589Z,98387.47
2022-10-01T18:30:13.959Z,98381.69
2022-10-01T18:32:44.827Z,98397.34
2022-10-01T18:35:28.049Z,98396.34
2022-10-01T18:38:20.679Z,98383.72
2022-10-01T18:40:56.908Z,98396.28
2022-10-01T18:43:25.893Z,98407.84
2022-10-01T18:46:30.064Z,98409.53
2022-10-01T18:49:14.254Z,98415.69
2022-10-01T18:52:21.475Z,98414.03
2022-10-01T18:55:06.060Z,98413.47
2022-10-01T18:57:50.944Z,98422.31
2022-10-01T19:00:25.583Z,98416.09
2022-10-01T19:02:58.075Z,98415.69
2022-10-01T19:05:55.932Z,98417.81
2022-10-01T19:08:29.074Z,98418.19
2022-10-01T19:11:22.567Z,98413.63
2022-10-01T19:14:14.223Z,98429.28
2022-10-01T19:17:11.935Z,98431.97
2022-10-01T19:20:03.086Z,98434.63
2022-10-01T19:23:13.183Z,98437.09
2022-10-01T19:25:50.829Z,98447.59
2022-10-01T19:28:29.275Z,98453.97
2022-10-01T19:31:43.322Z,98445.75
2022-10-01T19:34:18.676Z,98461.22
2022-10-01T19:36:52.638Z,98458.13
2022-10-01T19:39:23.380Z,98454.38
2022-10-01T19:42:02.204Z,98462.81
2022-10-01T19:44:55.595Z,98468.78
2022-10-01T19:47:38.778Z,98479.53
2022-10-01T19:50:19.875Z,98476.03
2022-10-01T19:52:51.335Z,98470.88
2022-10-01T19:55:20.741Z,98478.72
2022-10-01T19:57:47.717Z,98485.09
2022-10-01T20:00:20.158Z,98468.16
2022-10-01T20:03:07.377Z,98486.31
2022-10-01T20:06:03.610Z,98486.50
2022-10-01T20:08:52.907Z,98485.88
2022-10-01T20:11:32.543Z,98501.69
2022-10-01T20:14:56.277Z,98496.97
2022-10-01T20:17:27.906Z,98497.19
2022-10-01T20:20:17.009Z,98503.16
2022-10-01T20:23:05.339Z,98522.34
2022-10-01T20:25:34.635Z,98520.94
2022-10-01T20:28:31.271Z,98520.31
2022-10-01T20:31:16.032Z,98532.72
2022-10-01T20:34:06.889Z,98540.34
2022-10-01T20:36:42.516Z,98532.06
2022-10-01T20:39:28.194Z,98533.91
2022-10-01T20:41:56.281Z,98530.63
2022-10-01T20:44:32.931Z,98540.91
2022-10-01T20:47:06.627Z,98559.81
2022-10-01T20:49:47.393Z,98552.88
2022-10-01T20:52:28.850Z,98566.50
2022-10-01T20:55:14.216Z,98562.91
2022-10-01T20:57:48.124Z,98577.69
2022-10-01T21:00:26.871Z,98582.22
2022-10-01T21:03:14.365Z,98566.34
2022-10-01T21:05:47.381Z,98581.31
2022-10-01T21:08:42.419Z,98583.25
2022-10-01T21:11:25.806Z,98576.34
2022-10-01T21:14:03.324Z,98574.03
2022-10-01T21:17:07.362Z,98584.72
2022-10-01T21:19:46.027Z,98589.34
2022-10-01T21:22:45.743Z,98587.50
2022-10-01T21:25:53.445Z,98591.09
2022-10-01T21:28:49.808Z,98588.09
2022-10-01T21:31:34.941Z,98596.78
2022-10-01T21:34:10.422Z,98593.16
2022-10-01T21:36:55.482Z,98595.97
2022-10-01T21:39:33.096Z,98593.44
2022-10-01T21:42:44.572Z,98597.50
2022-10-01T21:45:22.624Z,98597.44
2022-10-01T21:48:04.763Z,98594.53
2022-10-01T21:50:58.662Z,98595.94
2022-10-01T21:53:55.488Z,98597.34
2022-10-01T21:56:32.867Z,98604.53
2022-10-01T21:59:17.441Z,98605.41
2022-10-01T22:01:48.836Z,98621.09
2022-10-01T22:04:27.290Z,98616.28
2022-10-01T22:07:05.449Z,98624.03
2022-10-01T22:09:43.071Z,98622.38
2022-10-01T22:12:11.364Z,98618.72
2022-10-01T22:14:41.999Z,98618.28
2022-10-01T22:17:17.671Z,98620.06
2022-10-01T22:19:52.302Z,98629.47
2022-10-01T22:22:29.253Z,98629.16
2022-10-01T22:24:59.757Z,98629.44
2022-10-01T22:27:53.247Z,98634.09
2022-10-01T22:30:25.960Z,98639.06
2022-10-01T22:33:12.667Z,98646.72
2022-10-01T22:35:46.339Z,98657.59
2022-10-01T22:38:29.705Z,98643.59
2022-10-01T22:41:12.164Z,98649.63
2022-10-01T22:43:41.027Z,98647.34
2022-10-01T22:46:44.676Z,98652.34
2022-10-01T22:49:36.911Z,98655.59
2022-10-01T22:52:17.888Z,98647.31
2022-10-01T22:55:19.357Z,98637.50
2022-10-01T22:57:55.032Z,98646.06
2022-10-01T23:00:21.674Z,98642.03
2022-10-01T23:03:21.612Z,98648.41
2022-10-01T23:06:01.710Z,98643.59
2022-10-01T23:08:49.631Z,98655.41
2022-10-01T23:11:28.305Z,98659.28
2022-10-01T23:14:25.176Z,98662.03
2022-10-01T23:17:11.874Z,98667.13
2022-10-01T23:19:53.942Z,98666.88
2022-10-01T23:22:39.230Z,98661.34
2022-10-01T23:25:33.645Z,98651.31
2022-10-01T23:28:21.489Z,98651.66
2022-10-01T23:31:12.263Z,98660.56
2022-10-01T23:34:10.181Z,98653.47
2022-10-01T23:36:48.083Z,98651.94
2022-10-01T23:39:45.739Z,98651.63
2022-10-01T23:42:12.235Z,98657.13
2022-10-01T23:44:50.079Z,98657.34
2022-10-01T23:47:22.357Z,98650.38
2022-10-01T23:49:57.546Z,98654.22
2022-10-01T23:52:36.771Z,98652.13
2022-10-01T23:55:34.803Z,98645.41
2022-10-01T23:58:03.819Z,98653.38
